Time;durP1;ratioP1;P1;durP2;ratioP2;P2;SDS_P1;SDS_P2;PMS_P1;PMS_P2;Temp;Humidity;BMP_temperature;BMP_pressure;BME280_temperature;BME280_humidity;BME280_pressure;Samples;Min_cycle;Max_cycle;Signal;HPM_P1;HPM_P2
2022/10/08 00:00:07;;;;;;;9.65;2.50;;;13.20;99.90;;;;;;5029822;28;20033;-78
2022/10/08 00:02:32;;;;;;;8.98;2.28;;;13.30;99.90;;;;;;5028348;28;20399;-78
2022/10/08 00:04:58;;;;;;;9.82;2.83;;;13.30;99.90;;;;;;5033584;28;20045;-79
2022/10/08 00:07:24;;;;;;;13.73;2.83;;;13.20;99.90;;;;;;5033543;28;20120;-78
2022/10/08 00:09:49;;;;;;;10.27;3.03;;;13.20;99.90;;;;;;5032832;28;20033;-78
2022/10/08 00:12:15;;;;;;;14.88;3.42;;;13.10;99.90;;;;;;5027828;28;20032;-78
2022/10/08 00:14:41;;;;;;;13.55;3.40;;;13.10;99.90;;;;;;5030405;28;20044;-78
2022/10/08 00:17:07;;;;;;;9.32;3.33;;;13.00;99.90;;;;;;5030755;28;20095;-78
2022/10/08 00:19:32;;;;;;;14.00;3.53;;;13.00;99.90;;;;;;5032984;28;20082;-78
2022/10/08 00:21:58;;;;;;;12.15;3.20;;;12.90;99.90;;;;;;5031747;28;20044;-78
2022/10/08 00:24:23;;;;;;;10.70;3.47;;;12.90;99.90;;;;;;5033018;28;20063;-78
2022/10/08 00:26:50;;;;;;;8.82;3.20;;;12.80;99.90;;;;;;5032935;28;20501;-78
2022/10/08 00:29:18;;;;;;;10.65;3.25;;;12.90;99.90;;;;;;5032764;28;20041;-78
2022/10/08 00:31:46;;;;;;;11.50;3.70;;;12.80;99.90;;;;;;5033046;28;20441;-78
2022/10/08 00:34:15;;;;;;;9.23;3.35;;;12.70;99.90;;;;;;5016825;28;20041;-78
2022/10/08 00:36:41;;;;;;;9.20;2.75;;;12.70;99.90;;;;;;5033062;28;20052;-78
2022/10/08 00:39:10;;;;;;;11.68;3.47;;;12.70;99.90;;;;;;5020436;28;20028;-78
2022/10/08 00:41:37;;;;;;;7.70;3.17;;;12.70;99.90;;;;;;5035872;28;20406;-78
2022/10/08 00:44:41;;;;;;;8.98;3.10;;;12.60;99.90;;;;;;5032329;28;20498;-78
2022/10/08 00:47:34;;;;;;;15.88;3.38;;;12.60;99.90;;;;;;5029972;28;20033;-78
2022/10/08 00:50:33;;;;;;;12.48;3.10;;;12.60;99.90;;;;;;5021504;28;20498;-78
2022/10/08 00:53:06;;;;;;;9.20;3.50;;;12.60;99.90;;;;;;5028425;28;20057;-78
2022/10/08 00:55:34;;;;;;;8.07;3.50;;;12.60;99.90;;;;;;5035438;28;20116;-78
2022/10/08 00:58:11;;;;;;;8.70;3.92;;;12.60;99.90;;;;;;5029532;28;20045;-79
2022/10/08 01:00:37;;;;;;;9.77;3.65;;;12.60;99.90;;;;;;5034989;28;20033;-78
2022/10/08 01:03:02;;;;;;;9.52;3.60;;;12.60;99.90;;;;;;5032188;28;20115;-78
2022/10/08 01:05:48;;;;;;;9.43;3.63;;;12.60;99.90;;;;;;5034687;28;20601;-78
2022/10/08 01:08:30;;;;;;;8.55;3.40;;;12.60;99.90;;;;;;5031607;28;20482;-79
2022/10/08 01:11:41;;;;;;;8.77;3.35;;;12.60;99.90;;;;;;5039345;28;20040;-79
2022/10/08 01:14:19;;;;;;;10.55;3.17;;;12.60;99.90;;;;;;5053009;28;20076;-79
2022/10/08 01:16:54;;;;;;;11.52;3.47;;;12.60;99.90;;;;;;5028949;23;20403;-81
2022/10/08 01:19:25;;;;;;;7.55;3.20;;;12.60;99.90;;;;;;4993784;28;20045;-80
2022/10/08 01:22:06;;;;;;;10.05;3.38;;;12.60;99.90;;;;;;5019713;28;20056;-80
2022/10/08 01:27:40;;;;;;;8.45;2.70;;;12.60;99.90;;;;;;5025022;28;20067;-80
2022/10/08 01:30:11;;;;;;;8.05;3.35;;;12.60;99.90;;;;;;5017715;28;20029;-80
2022/10/08 01:32:50;;;;;;;7.25;3.22;;;12.60;99.90;;;;;;5025139;28;20505;-79
2022/10/08 01:35:32;;;;;;;8.18;3.50;;;12.60;99.90;;;;;;5008887;28;20080;-78
2022/10/08 01:38:05;;;;;;;8.85;3.33;;;12.60;99.90;;;;;;5026395;28;20491;-78
2022/10/08 01:40:35;;;;;;;7.15;3.25;;;12.60;99.90;;;;;;5028764;28;20041;-78
2022/10/08 01:43:05;;;;;;;7.28;2.90;;;12.70;99.90;;;;;;5016040;28;20248;-78
2022/10/08 01:45:36;;;;;;;8.02;3.10;;;12.80;99.90;;;;;;5017139;28;20404;-78
2022/10/08 01:48:06;;;;;;;6.07;2.70;;;12.50;99.90;;;;;;5023063;28;20041;-78
2022/10/08 01:50:40;;;;;;;7.07;3.08;;;12.50;99.90;;;;;;5023835;28;20037;-78
2022/10/08 01:53:10;;;;;;;7.70;3.10;;;12.50;99.90;;;;;;5022439;28;20041;-78
2022/10/08 01:55:42;;;;;;;6.25;2.70;;;12.50;99.90;;;;;;5022968;28;20032;-78
2022/10/08 01:58:20;;;;;;;7.45;2.72;;;12.60;99.90;;;;;;5018615;28;20037;-78
2022/10/08 02:00:49;;;;;;;5.38;2.67;;;12.50;99.90;;;;;;5020376;28;20045;-78
2022/10/08 02:03:15;;;;;;;8.10;2.70;;;12.50;99.90;;;;;;5040098;28;20120;-78
2022/10/08 02:05:47;;;;;;;8.57;2.42;;;12.50;99.90;;;;;;5021227;28;20458;-78
2022/10/08 02:08:13;;;;;;;7.10;2.40;;;12.50;99.90;;;;;;5023453;28;20041;-78
2022/10/08 02:10:39;;;;;;;6.82;2.78;;;12.50;99.90;;;;;;5021134;28;20059;-78
2022/10/08 02:13:05;;;;;;;7.53;2.67;;;12.50;99.90;;;;;;5040682;28;20060;-78
2022/10/08 02:15:50;;;;;;;8.60;2.67;;;12.50;99.90;;;;;;5021890;28;20481;-78
2022/10/08 02:18:20;;;;;;;8.98;2.30;;;12.50;99.90;;;;;;5024380;28;20052;-78
2022/10/08 02:20:45;;;;;;;5.07;2.60;;;12.50;99.90;;;;;;5031832;28;20060;-79
2022/10/08 02:23:38;;;;;;;5.70;2.38;;;12.40;99.90;;;;;;5018180;28;20033;-78
2022/10/08 02:26:12;;;;;;;5.20;1.80;;;12.40;99.90;;;;;;5003293;28;20057;-79
2022/10/08 02:29:00;;;;;;;6.50;2.00;;;12.40;99.90;;;;;;5017508;28;20220;-78
2022/10/08 02:31:39;;;;;;;5.45;1.95;;;12.40;99.90;;;;;;5033387;28;20041;-78
2022/10/08 02:34:31;;;;;;;4.43;1.90;;;12.40;99.90;;;;;;5018979;28;20399;-78
2022/10/08 02:37:09;;;;;;;6.45;2.00;;;12.40;99.90;;;;;;5029464;28;20091;-78
2022/10/08 02:39:38;;;;;;;7.20;2.05;;;12.30;99.90;;;;;;5018000;28;20037;-78
2022/10/08 02:42:09;;;;;;;5.03;1.90;;;12.30;99.90;;;;;;5037270;28;20063;-78
2022/10/08 02:44:52;;;;;;;6.18;1.90;;;12.30;99.90;;;;;;5018868;28;20049;-78
2022/10/08 02:47:20;;;;;;;4.18;1.50;;;12.30;99.90;;;;;;5019332;28;20051;-78
2022/10/08 02:49:52;;;;;;;5.68;2.40;;;12.20;99.90;;;;;;5022976;28;20128;-78
2022/10/08 02:52:19;;;;;;;5.33;1.93;;;12.20;99.90;;;;;;5019461;28;20462;-78
2022/10/08 02:54:49;;;;;;;6.40;2.03;;;12.20;99.90;;;;;;5029496;28;20289;-78
2022/10/08 02:57:35;;;;;;;6.43;2.00;;;12.20;99.90;;;;;;5011658;28;20041;-79
2022/10/08 03:00:02;;;;;;;6.10;1.85;;;12.20;99.90;;;;;;5017403;28;20128;-79
2022/10/08 03:02:42;;;;;;;3.72;2.05;;;12.10;99.90;;;;;;5025509;28;20033;-78
2022/10/08 03:05:16;;;;;;;7.28;1.90;;;12.10;99.90;;;;;;5016211;28;20128;-78
2022/10/08 03:07:43;;;;;;;6.25;1.85;;;12.10;99.90;;;;;;5036080;28;20403;-78
2022/10/08 03:10:11;;;;;;;6.50;1.88;;;12.10;99.90;;;;;;5007990;28;20065;-78
2022/10/08 03:12:37;;;;;;;9.05;2.50;;;12.10;99.90;;;;;;5030524;28;20041;-78
2022/10/08 03:15:03;;;;;;;3.90;1.77;;;12.00;99.90;;;;;;5014235;28;20051;-78
2022/10/08 03:17:37;;;;;;;7.45;2.00;;;12.00;99.90;;;;;;5031012;28;20439;-78
2022/10/08 03:20:05;;;;;;;7.32;1.98;;;12.00;99.90;;;;;;5020716;28;20395;-78
2022/10/08 03:22:32;;;;;;;4.70;2.10;;;12.00;99.90;;;;;;5036416;28;20083;-78
2022/10/08 03:24:58;;;;;;;4.10;2.05;;;12.00;99.90;;;;;;5033196;28;20096;-79
2022/10/08 03:27:24;;;;;;;4.78;1.70;;;12.00;99.90;;;;;;5021610;28;20038;-78
2022/10/08 03:29:55;;;;;;;6.47;2.25;;;11.90;99.90;;;;;;5014614;28;20403;-79
2022/10/08 03:32:24;;;;;;;6.10;2.30;;;11.90;99.90;;;;;;5005476;28;20035;-78
2022/10/08 03:34:50;;;;;;;4.22;1.95;;;11.90;99.90;;;;;;5026321;28;20041;-78
2022/10/08 03:37:16;;;;;;;6.38;1.95;;;11.90;99.90;;;;;;5026315;28;20037;-78
2022/10/08 03:39:44;;;;;;;5.53;2.20;;;11.80;99.90;;;;;;5021707;28;20032;-78
2022/10/08 03:42:10;;;;;;;4.82;2.00;;;11.90;99.90;;;;;;5015177;28;20032;-79
2022/10/08 03:44:36;;;;;;;7.50;2.17;;;11.80;99.90;;;;;;5016807;28;20041;-79
2022/10/08 03:47:01;;;;;;;6.32;2.35;;;11.90;99.90;;;;;;5022957;28;20040;-78
2022/10/08 03:49:27;;;;;;;7.60;2.67;;;11.80;99.90;;;;;;5010543;28;20064;-78
2022/10/08 03:51:52;;;;;;;5.50;2.22;;;11.80;99.90;;;;;;5037131;28;20068;-78
2022/10/08 03:54:18;;;;;;;8.70;2.55;;;11.90;99.90;;;;;;5017394;28;20155;-80
2022/10/08 03:56:43;;;;;;;8.30;2.45;;;11.90;99.90;;;;;;4998777;28;20075;-78
2022/10/08 03:59:09;;;;;;;6.10;2.47;;;11.90;99.90;;;;;;4998491;28;20150;-78
2022/10/08 04:01:35;;;;;;;7.07;2.55;;;11.80;99.90;;;;;;5040567;28;20037;-78
2022/10/08 04:04:01;;;;;;;7.70;2.90;;;11.90;99.90;;;;;;5016105;28;20045;-78
2022/10/08 04:06:26;;;;;;;6.40;2.50;;;11.80;99.90;;;;;;5030575;28;20064;-78
2022/10/08 04:08:54;;;;;;;6.13;2.78;;;11.80;99.90;;;;;;5016025;28;20057;-78
2022/10/08 04:11:20;;;;;;;6.80;2.40;;;11.80;99.90;;;;;;5024706;28;20368;-78
2022/10/08 04:13:46;;;;;;;7.55;2.70;;;11.80;99.90;;;;;;5028203;28;20049;-78
2022/10/08 04:16:16;;;;;;;8.00;2.60;;;11.80;99.90;;;;;;5020022;28;20033;-78
2022/10/08 04:18:42;;;;;;;10.18;2.95;;;11.80;99.90;;;;;;5026126;28;20528;-78
2022/10/08 04:21:11;;;;;;;6.32;2.40;;;11.80;99.90;;;;;;5026889;28;20032;-78
2022/10/08 04:23:38;;;;;;;8.38;2.63;;;11.80;99.90;;;;;;5017717;28;20044;-77
2022/10/08 04:26:05;;;;;;;8.23;2.90;;;11.90;99.90;;;;;;5018733;28;20145;-78
2022/10/08 04:28:30;;;;;;;5.72;2.47;;;11.90;99.90;;;;;;5020025;28;20072;-78
2022/10/08 04:31:02;;;;;;;6.88;2.70;;;11.90;99.90;;;;;;5026411;28;20072;-78
2022/10/08 04:33:28;;;;;;;9.20;3.00;;;11.90;99.90;;;;;;5019160;28;20037;-78
2022/10/08 04:35:54;;;;;;;7.07;2.58;;;11.90;99.90;;;;;;5033798;28;20042;-78
2022/10/08 04:38:21;;;;;;;10.07;3.08;;;11.90;99.90;;;;;;5030110;28;20045;-78
2022/10/08 04:40:46;;;;;;;8.55;2.53;;;12.00;99.90;;;;;;5031208;28;20049;-78
2022/10/08 04:43:13;;;;;;;8.55;2.65;;;11.90;99.90;;;;;;5027416;28;20037;-78
2022/10/08 04:45:44;;;;;;;6.90;2.67;;;11.90;99.90;;;;;;5050164;28;20048;-78
2022/10/08 04:48:11;;;;;;;7.82;2.42;;;12.00;99.90;;;;;;5039731;28;20126;-78
2022/10/08 04:50:37;;;;;;;12.07;2.60;;;11.90;99.90;;;;;;5026874;28;20116;-78
2022/10/08 04:53:03;;;;;;;8.27;2.80;;;11.90;99.90;;;;;;5024191;28;20177;-78
2022/10/08 04:55:29;;;;;;;7.93;2.67;;;11.90;99.90;;;;;;5046098;28;20120;-78
2022/10/08 04:57:54;;;;;;;9.57;2.92;;;11.90;99.90;;;;;;5029741;28;20443;-78
2022/10/08 05:00:20;;;;;;;10.57;2.80;;;11.80;99.90;;;;;;5030549;28;20041;-78
2022/10/08 05:02:46;;;;;;;9.85;2.75;;;11.90;99.90;;;;;;5019584;28;20043;-77
2022/10/08 05:05:11;;;;;;;10.00;2.95;;;11.90;99.90;;;;;;5026830;28;20561;-78
2022/10/08 05:07:37;;;;;;;5.63;2.92;;;11.90;99.90;;;;;;5027173;28;20061;-78
2022/10/08 05:10:03;;;;;;;7.82;3.00;;;11.90;99.90;;;;;;5029659;28;20045;-78
2022/10/08 05:12:28;;;;;;;7.70;2.70;;;11.90;99.90;;;;;;5022310;28;20037;-78
2022/10/08 05:14:54;;;;;;;6.35;2.90;;;11.90;99.90;;;;;;5022145;28;20468;-78
2022/10/08 05:17:19;;;;;;;7.95;2.83;;;11.90;99.90;;;;;;5024620;28;20041;-78
2022/10/08 05:19:45;;;;;;;10.25;2.78;;;11.80;99.90;;;;;;5027487;28;20084;-78
2022/10/08 05:22:10;;;;;;;7.13;2.38;;;11.90;99.90;;;;;;5035075;28;20033;-79
2022/10/08 05:24:36;;;;;;;7.45;2.70;;;11.80;99.90;;;;;;5031868;28;20473;-78
2022/10/08 05:27:01;;;;;;;7.75;2.67;;;11.80;99.90;;;;;;5022084;28;20132;-78
2022/10/08 05:29:29;;;;;;;7.35;2.65;;;11.70;99.90;;;;;;5006094;28;20029;-78
2022/10/08 05:31:55;;;;;;;8.98;2.83;;;11.70;99.90;;;;;;5012284;28;20092;-78
2022/10/08 05:34:20;;;;;;;9.55;2.67;;;11.70;99.90;;;;;;5021657;28;20037;-78
2022/10/08 05:36:46;;;;;;;6.60;2.72;;;11.60;99.90;;;;;;5019085;28;20467;-78
2022/10/08 05:39:12;;;;;;;7.72;2.65;;;11.60;99.90;;;;;;5013844;28;20071;-78
2022/10/08 05:41:38;;;;;;;9.05;3.05;;;11.60;99.90;;;;;;5029687;28;20041;-79
2022/10/08 05:44:05;;;;;;;8.57;2.63;;;11.60;99.90;;;;;;5026230;28;20550;-78
2022/10/08 05:46:32;;;;;;;7.97;2.80;;;11.50;99.90;;;;;;5017668;28;20037;-78
2022/10/08 05:49:01;;;;;;;9.77;3.10;;;11.50;99.90;;;;;;5019278;28;20045;-78
2022/10/08 05:51:27;;;;;;;8.85;3.60;;;11.50;99.90;;;;;;5026458;28;20041;-78
2022/10/08 05:53:55;;;;;;;9.52;2.85;;;11.50;99.90;;;;;;5045863;28;20091;-78
2022/10/08 05:56:22;;;;;;;7.00;3.05;;;11.50;99.90;;;;;;5020610;28;20038;-78
2022/10/08 05:58:48;;;;;;;6.88;2.90;;;11.50;99.90;;;;;;5030587;28;20041;-78
2022/10/08 06:01:20;;;;;;;7.88;2.97;;;11.40;99.90;;;;;;5036526;28;20086;-81
2022/10/08 06:03:54;;;;;;;6.63;2.90;;;11.40;99.90;;;;;;5024529;28;20090;-81
2022/10/08 06:06:21;;;;;;;8.15;3.42;;;11.40;99.90;;;;;;5019148;28;20294;-81
2022/10/08 06:08:51;;;;;;;8.73;3.05;;;11.40;99.90;;;;;;5025516;28;20502;-81
2022/10/08 06:11:16;;;;;;;10.07;3.25;;;11.40;99.90;;;;;;5032223;28;20040;-81
2022/10/08 06:13:42;;;;;;;9.85;3.80;;;11.40;99.90;;;;;;5017804;28;20041;-81
2022/10/08 06:16:10;;;;;;;7.30;3.20;;;11.40;99.90;;;;;;5031195;28;20040;-81
2022/10/08 06:18:38;;;;;;;9.95;3.35;;;11.40;99.90;;;;;;5025799;28;20046;-81
2022/10/08 06:21:10;;;;;;;8.52;3.33;;;11.40;99.90;;;;;;5023749;28;20061;-81
2022/10/08 06:23:37;;;;;;;12.52;3.53;;;11.40;99.90;;;;;;5012244;28;20041;-81
2022/10/08 06:26:05;;;;;;;9.25;3.35;;;11.40;99.90;;;;;;5017777;28;20057;-81
2022/10/08 06:28:32;;;;;;;9.45;3.78;;;11.40;99.90;;;;;;5031243;28;20047;-80
2022/10/08 06:30:58;;;;;;;9.07;3.33;;;11.30;99.90;;;;;;5015498;28;20038;-81
2022/10/08 06:33:24;;;;;;;11.57;4.15;;;11.40;99.90;;;;;;5035363;28;20059;-80
2022/10/08 06:35:50;;;;;;;14.32;4.63;;;11.40;99.90;;;;;;5015811;28;20087;-80
2022/10/08 06:38:15;;;;;;;9.20;3.88;;;11.30;99.90;;;;;;5023088;28;20038;-81
2022/10/08 06:40:41;;;;;;;13.30;4.30;;;11.40;99.90;;;;;;5029152;28;20514;-80
2022/10/08 06:43:16;;;;;;;10.07;4.20;;;11.40;99.90;;;;;;5018517;28;20387;-81
2022/10/08 06:45:42;;;;;;;9.43;4.18;;;11.30;99.90;;;;;;5034520;28;20431;-81
2022/10/08 06:48:08;;;;;;;8.77;4.07;;;11.40;99.90;;;;;;5008956;28;20045;-81
2022/10/08 06:50:35;;;;;;;10.80;4.07;;;11.40;99.90;;;;;;5020020;28;20182;-80
2022/10/08 06:53:03;;;;;;;10.55;3.85;;;11.40;99.90;;;;;;5000629;28;20065;-81
2022/10/08 06:55:30;;;;;;;10.75;4.07;;;11.50;99.90;;;;;;5033380;28;20037;-81
2022/10/08 06:57:55;;;;;;;8.35;4.07;;;11.50;99.90;;;;;;5021050;28;20049;-81
2022/10/08 07:00:21;;;;;;;8.75;4.43;;;11.50;99.90;;;;;;5026260;28;20379;-82
2022/10/08 07:02:47;;;;;;;11.45;3.83;;;11.50;99.90;;;;;;5023771;28;20076;-81
2022/10/08 07:05:12;;;;;;;11.77;3.92;;;11.50;99.90;;;;;;5017967;28;20116;-81
2022/10/08 07:07:38;;;;;;;9.65;3.83;;;11.50;99.90;;;;;;5026413;28;20074;-81
2022/10/08 07:10:04;;;;;;;10.32;3.75;;;11.40;99.90;;;;;;5005051;28;20518;-82
2022/10/08 07:12:31;;;;;;;12.85;3.80;;;11.50;99.90;;;;;;5026638;28;20033;-82
2022/10/08 07:14:57;;;;;;;8.95;3.80;;;11.50;99.90;;;;;;5030225;28;20037;-80
2022/10/08 07:19:51;;;;;;;9.85;3.63;;;11.60;99.90;;;;;;5042882;28;20041;-61
2022/10/08 07:22:17;;;;;;;9.73;2.97;;;11.70;99.90;;;;;;5043598;28;20029;-59
2022/10/08 07:24:43;;;;;;;11.15;3.30;;;11.70;99.90;;;;;;5039386;28;20033;-61
2022/10/08 07:27:08;;;;;;;13.23;3.25;;;11.70;99.90;;;;;;5047854;28;20033;-61
2022/10/08 07:29:34;;;;;;;11.73;3.60;;;11.70;99.90;;;;;;5039096;28;20041;-62
2022/10/08 07:32:00;;;;;;;12.82;3.40;;;11.70;99.90;;;;;;5038163;28;20492;-63
2022/10/08 07:34:25;;;;;;;16.27;3.20;;;11.80;99.90;;;;;;5043382;28;20033;-61
2022/10/08 07:36:51;;;;;;;10.43;3.35;;;11.70;99.90;;;;;;5038670;28;20407;-61
2022/10/08 07:39:18;;;;;;;10.35;2.95;;;11.80;99.90;;;;;;5045681;28;20037;-61
2022/10/08 07:41:45;;;;;;;9.55;2.75;;;11.80;99.90;;;;;;5042226;28;20556;-64
2022/10/08 07:44:11;;;;;;;11.65;3.00;;;11.90;99.90;;;;;;5033252;28;20112;-61
2022/10/08 07:46:44;;;;;;;9.32;2.65;;;11.80;99.90;;;;;;5033862;28;20518;-62
2022/10/08 07:49:10;;;;;;;11.25;3.28;;;11.90;99.90;;;;;;5046121;28;20034;-61
2022/10/08 07:51:40;;;;;;;12.65;2.60;;;11.90;99.90;;;;;;5050953;28;20044;-60
2022/10/08 07:54:07;;;;;;;10.52;2.40;;;11.90;99.90;;;;;;5023481;28;20103;-60
2022/10/08 07:56:34;;;;;;;8.55;2.45;;;11.90;99.90;;;;;;5050779;28;20051;-62
2022/10/08 07:59:00;;;;;;;10.55;2.60;;;12.00;99.90;;;;;;5022492;28;20048;-62
2022/10/08 08:01:28;;;;;;;11.15;2.38;;;12.00;99.90;;;;;;5032384;28;20041;-61
2022/10/08 08:03:56;;;;;;;8.50;2.22;;;12.10;99.90;;;;;;5037033;28;20051;-61
2022/10/08 08:06:25;;;;;;;8.88;2.13;;;12.10;99.90;;;;;;5050013;28;20082;-61
2022/10/08 08:08:52;;;;;;;5.88;1.80;;;12.20;99.90;;;;;;5049478;28;20397;-61
2022/10/08 08:11:20;;;;;;;6.78;1.80;;;12.20;99.90;;;;;;5037647;28;20047;-61
2022/10/08 08:13:46;;;;;;;5.63;1.60;;;12.20;99.90;;;;;;5043427;28;20033;-61
2022/10/08 08:16:15;;;;;;;9.98;1.90;;;12.20;99.90;;;;;;5033609;28;20029;-61
2022/10/08 08:18:43;;;;;;;7.70;1.95;;;12.20;99.90;;;;;;5041433;28;20120;-61
2022/10/08 08:21:20;;;;;;;8.68;1.77;;;12.30;99.90;;;;;;5050180;28;20035;-60
2022/10/08 08:23:49;;;;;;;6.75;1.80;;;12.40;99.90;;;;;;5046334;28;20079;-61
2022/10/08 08:26:16;;;;;;;9.25;1.95;;;12.40;99.90;;;;;;5049425;28;20041;-60
2022/10/08 08:28:42;;;;;;;7.05;1.98;;;12.50;99.90;;;;;;5045558;28;20486;-61
2022/10/08 08:31:16;;;;;;;7.82;1.73;;;12.50;99.90;;;;;;5049505;28;20116;-61
2022/10/08 08:33:46;;;;;;;8.80;1.63;;;12.50;99.90;;;;;;5048919;28;20389;-61
2022/10/08 08:36:12;;;;;;;10.35;1.75;;;12.60;99.90;;;;;;5042350;28;20040;-60
2022/10/08 08:38:38;;;;;;;9.63;2.17;;;12.60;99.90;;;;;;5041650;28;20314;-60
2022/10/08 08:41:16;;;;;;;7.22;1.70;;;12.60;99.90;;;;;;5042028;28;20055;-63
2022/10/08 08:43:41;;;;;;;9.13;1.63;;;12.70;99.90;;;;;;5045952;28;20037;-60
2022/10/08 08:46:12;;;;;;;8.25;1.85;;;12.70;99.90;;;;;;5047279;28;20029;-60
2022/10/08 08:48:40;;;;;;;8.05;1.55;;;12.70;99.90;;;;;;5040671;28;20033;-63
2022/10/08 08:51:05;;;;;;;7.90;1.77;;;12.70;99.90;;;;;;5047701;28;20076;-59
2022/10/08 08:53:32;;;;;;;9.75;2.22;;;12.80;99.90;;;;;;5044640;28;20060;-59
2022/10/08 08:56:03;;;;;;;7.43;1.65;;;12.80;99.90;;;;;;5043175;28;20041;-64
2022/10/08 08:58:40;;;;;;;8.10;1.52;;;12.90;99.90;;;;;;5044873;28;20037;-62
2022/10/08 09:01:09;;;;;;;7.90;1.80;;;12.90;99.90;;;;;;5044727;28;20284;-61
2022/10/08 09:03:40;;;;;;;9.43;1.65;;;12.90;99.90;;;;;;5039605;28;20033;-64
2022/10/08 09:06:11;;;;;;;8.40;1.85;;;12.90;99.90;;;;;;5041697;28;20572;-60
2022/10/08 09:08:52;;;;;;;6.22;1.65;;;12.90;99.90;;;;;;5032042;28;20045;-61
2022/10/08 09:11:20;;;;;;;7.28;1.50;;;12.90;99.90;;;;;;5049851;28;20045;-60
2022/10/08 09:13:50;;;;;;;9.77;1.50;;;13.00;99.90;;;;;;5034484;28;20488;-61
2022/10/08 09:16:17;;;;;;;7.65;1.40;;;13.00;99.90;;;;;;5043446;28;20400;-60
2022/10/08 09:18:48;;;;;;;6.82;1.60;;;13.00;99.90;;;;;;5049675;28;20044;-60
2022/10/08 09:21:14;;;;;;;8.50;1.63;;;13.00;99.90;;;;;;5037963;28;20079;-61
2022/10/08 09:23:40;;;;;;;4.20;1.20;;;13.00;99.90;;;;;;5041789;28;20124;-61
2022/10/08 09:26:18;;;;;;;6.07;1.40;;;13.10;99.90;;;;;;5022620;28;20127;-61
2022/10/08 09:28:49;;;;;;;7.72;1.50;;;13.10;99.90;;;;;;5050050;28;20040;-61
2022/10/08 09:31:25;;;;;;;8.52;1.40;;;13.20;99.90;;;;;;5042085;28;20060;-59
2022/10/08 09:34:09;;;;;;;7.05;1.88;;;13.30;99.90;;;;;;5024237;28;20628;-64
2022/10/08 09:36:53;;;;;;;7.05;1.30;;;13.30;99.90;;;;;;5029470;28;20041;-60
2022/10/08 09:39:24;;;;;;;7.53;1.90;;;13.30;99.90;;;;;;5038252;28;20040;-60
2022/10/08 09:42:05;;;;;;;8.63;1.70;;;13.30;99.90;;;;;;5048646;28;20033;-61
2022/10/08 09:44:55;;;;;;;7.88;1.58;;;13.30;99.90;;;;;;5047861;28;20480;-60
2022/10/08 09:47:22;;;;;;;7.15;1.23;;;13.40;99.90;;;;;;5045338;28;20386;-60
2022/10/08 09:50:17;;;;;;;7.57;1.42;;;13.50;99.90;;;;;;5047676;28;20369;-60
2022/10/08 09:52:47;;;;;;;6.57;1.40;;;13.50;99.90;;;;;;5039760;28;20503;-61
2022/10/08 09:55:18;;;;;;;11.30;1.77;;;13.60;99.90;;;;;;5042180;28;20029;-61
2022/10/08 09:57:56;;;;;;;4.90;1.67;;;13.60;99.90;;;;;;5041907;28;20037;-60
2022/10/08 10:00:38;;;;;;;7.90;1.80;;;13.70;99.90;;;;;;5035113;28;20457;-60
2022/10/08 10:03:06;;;;;;;9.52;1.30;;;13.90;99.90;;;;;;5053190;28;20037;-62
2022/10/08 10:05:36;;;;;;;7.47;1.80;;;14.00;99.90;;;;;;5052894;28;20068;-60
2022/10/08 10:08:02;;;;;;;6.40;1.35;;;14.20;99.90;;;;;;5011179;28;20036;-61
2022/10/08 10:10:33;;;;;;;6.10;1.30;;;14.20;99.90;;;;;;5052660;28;20041;-62
2022/10/08 10:13:11;;;;;;;6.85;1.85;;;14.30;99.90;;;;;;5042573;28;20037;-63
2022/10/08 10:15:44;;;;;;;5.40;1.63;;;14.30;99.90;;;;;;5018500;28;20077;-61
2022/10/08 10:18:18;;;;;;;7.65;1.65;;;14.40;99.90;;;;;;5028316;28;20409;-62
2022/10/08 10:20:51;;;;;;;8.30;1.50;;;14.60;99.90;;;;;;5025197;28;20117;-61
2022/10/08 10:23:38;;;;;;;4.72;1.30;;;14.70;99.90;;;;;;5041775;28;20036;-63
2022/10/08 10:26:07;;;;;;;8.82;1.70;;;14.70;99.90;;;;;;5017842;28;20061;-62
2022/10/08 10:28:49;;;;;;;6.25;1.50;;;14.70;99.90;;;;;;5045730;28;20032;-63
2022/10/08 10:31:40;;;;;;;6.87;1.60;;;14.80;99.90;;;;;;5044387;28;20037;-63
2022/10/08 10:34:14;;;;;;;7.45;2.65;;;14.80;99.90;;;;;;5051670;28;20041;-61
2022/10/08 10:36:57;;;;;;;5.63;1.30;;;14.80;99.90;;;;;;5052411;28;20044;-61
2022/10/08 10:39:34;;;;;;;6.43;1.60;;;14.60;99.90;;;;;;5039568;28;20391;-61
2022/10/08 10:42:00;;;;;;;9.20;1.50;;;14.40;99.90;;;;;;5043041;28;20098;-61
2022/10/08 10:44:56;;;;;;;9.35;2.03;;;14.30;99.90;;;;;;5045941;28;20037;-61
2022/10/08 10:47:24;;;;;;;5.65;1.45;;;14.30;99.90;;;;;;5029399;28;20045;-61
2022/10/08 10:49:51;;;;;;;6.82;1.60;;;14.40;99.90;;;;;;5050309;28;20545;-62
2022/10/08 10:52:33;;;;;;;9.40;1.65;;;14.50;99.90;;;;;;5029487;28;20037;-62
2022/10/08 10:55:12;;;;;;;5.78;1.67;;;14.70;99.90;;;;;;5052089;28;20041;-61
2022/10/08 10:57:40;;;;;;;6.88;1.48;;;14.90;99.90;;;;;;5049433;28;20404;-62
2022/10/08 11:00:20;;;;;;;9.55;1.70;;;15.00;99.90;;;;;;5042627;28;20037;-63
2022/10/08 11:03:16;;;;;;;7.13;1.63;;;15.00;99.90;;;;;;5046541;28;20120;-62
2022/10/08 11:05:45;;;;;;;7.13;1.40;;;15.00;99.90;;;;;;5044357;28;20420;-63
2022/10/08 11:08:29;;;;;;;5.80;1.33;;;15.20;99.90;;;;;;5034044;28;20157;-61
2022/10/08 11:11:24;;;;;;;5.05;1.20;;;15.30;99.90;;;;;;5023505;28;20385;-61
2022/10/08 11:14:13;;;;;;;5.90;1.92;;;15.60;99.90;;;;;;5048431;28;20432;-61
2022/10/08 11:16:41;;;;;;;6.35;1.13;;;15.90;99.90;;;;;;5024033;28;20044;-62
2022/10/08 11:19:45;;;;;;;5.72;1.35;;;16.00;99.90;;;;;;5022273;28;20050;-61
2022/10/08 11:22:39;;;;;;;5.20;1.23;;;16.00;99.90;;;;;;5048171;28;20148;-60
2022/10/08 11:25:04;;;;;;;5.80;1.50;;;15.80;99.90;;;;;;5044154;28;20037;-63
2022/10/08 11:27:45;;;;;;;4.38;1.23;;;15.60;99.90;;;;;;5024726;28;20044;-61
2022/10/08 11:30:13;;;;;;;3.58;1.13;;;15.40;99.90;;;;;;5049729;28;20507;-63
2022/10/08 11:32:42;;;;;;;3.65;1.08;;;15.20;99.90;;;;;;5044196;28;20091;-62
2022/10/08 11:35:17;;;;;;;6.07;1.67;;;15.20;99.90;;;;;;5022984;28;20049;-61
2022/10/08 11:38:14;;;;;;;8.85;1.80;;;15.30;99.90;;;;;;5026192;28;20099;-61
2022/10/08 11:40:51;;;;;;;5.88;1.30;;;15.40;99.90;;;;;;4980030;28;20086;-59
2022/10/08 11:43:50;;;;;;;6.25;1.30;;;15.70;99.90;;;;;;5029543;28;20033;-63
2022/10/08 11:46:21;;;;;;;6.68;1.38;;;15.80;99.90;;;;;;5025382;28;20044;-62
2022/10/08 11:48:48;;;;;;;6.05;1.27;;;15.90;99.90;;;;;;5050590;28;20048;-61
2022/10/08 11:51:19;;;;;;;5.25;1.00;;;16.00;99.90;;;;;;5050000;28;20459;-62
2022/10/08 11:54:03;;;;;;;5.63;1.33;;;16.20;99.90;;;;;;5041993;28;20126;-65
2022/10/08 11:56:30;;;;;;;5.18;1.20;;;16.30;99.90;;;;;;5038338;28;20614;-61
2022/10/08 11:59:00;;;;;;;8.98;1.58;;;16.50;99.90;;;;;;5038723;28;20053;-62
2022/10/08 12:01:25;;;;;;;3.70;1.20;;;16.60;99.90;;;;;;5027113;28;20037;-62
2022/10/08 12:04:16;;;;;;;6.45;1.52;;;16.80;99.90;;;;;;5047235;28;20047;-61
2022/10/08 12:06:44;;;;;;;4.68;1.13;;;16.90;99.90;;;;;;5046647;28;20123;-65
2022/10/08 12:09:23;;;;;;;5.50;1.60;;;17.00;99.90;;;;;;5026189;28;20041;-62
2022/10/08 12:11:51;;;;;;;7.60;1.42;;;17.10;99.90;;;;;;5046403;28;20032;-61
2022/10/08 12:14:26;;;;;;;9.32;1.60;;;17.00;99.90;;;;;;5035878;28;20048;-61
2022/10/08 12:16:57;;;;;;;4.65;1.20;;;17.10;99.90;;;;;;5039337;28;20106;-63
2022/10/08 12:19:32;;;;;;;6.27;1.53;;;17.10;99.90;;;;;;5032093;28;20182;-61
2022/10/08 12:22:23;;;;;;;5.75;1.30;;;17.10;99.90;;;;;;5026134;28;20288;-62
2022/10/08 12:24:56;;;;;;;7.82;1.42;;;17.10;99.90;;;;;;5010818;28;20057;-60
2022/10/08 12:27:26;;;;;;;6.97;1.13;;;17.20;99.90;;;;;;5036764;28;20030;-66
2022/10/08 12:30:02;;;;;;;6.45;1.40;;;17.10;99.90;;;;;;5041822;28;20048;-61
2022/10/08 12:32:43;;;;;;;5.22;1.25;;;17.10;99.90;;;;;;5044421;28;20033;-61
2022/10/08 12:35:29;;;;;;;6.82;1.38;;;17.10;99.90;;;;;;5017451;28;20400;-62
2022/10/08 12:38:22;;;;;;;3.97;1.20;;;17.10;99.90;;;;;;5049870;28;20128;-63
2022/10/08 12:41:28;;;;;;;5.07;1.35;;;17.10;99.90;;;;;;5028700;28;20045;-61
2022/10/08 12:44:40;;;;;;;4.43;1.15;;;17.00;99.90;;;;;;5017105;28;20448;-62
2022/10/08 12:47:21;;;;;;;6.38;1.27;;;17.00;99.90;;;;;;5018560;28;20405;-61
2022/10/08 12:50:22;;;;;;;5.65;1.60;;;16.90;99.90;;;;;;5044375;28;20099;-64
2022/10/08 12:52:48;;;;;;;5.82;1.30;;;16.90;99.90;;;;;;5046814;28;20040;-62
2022/10/08 12:55:17;;;;;;;7.00;1.33;;;17.00;99.90;;;;;;5032357;28;20098;-61
2022/10/08 12:57:43;;;;;;;6.70;1.50;;;17.10;99.90;;;;;;5041086;28;20087;-61
2022/10/08 13:00:27;;;;;;;8.50;1.63;;;17.20;99.90;;;;;;5030602;28;20485;-61
2022/10/08 13:03:24;;;;;;;5.03;1.33;;;17.10;99.90;;;;;;5052114;28;20094;-64
2022/10/08 13:05:52;;;;;;;6.10;1.50;;;16.80;99.10;;;;;;5030748;28;20128;-61
2022/10/08 13:08:29;;;;;;;6.32;1.42;;;16.60;99.90;;;;;;5053462;28;20413;-62
2022/10/08 13:10:56;;;;;;;3.03;1.35;;;16.40;99.90;;;;;;5028617;28;20393;-61
2022/10/08 13:13:37;;;;;;;6.05;1.35;;;16.20;99.90;;;;;;5052816;28;20426;-61